Terminal Aerodrome Forecast
Issued by NWS Des Moines, IA

Home | Current Version | Previous Version | Text Only | Print | Product List | Glossary On
Versions: 1 2 3 4 5 6 7 8 9 10 11 12 13 14 15
000
FTUS43 KDMX 312006 AAA
TAFDSM
TAF AMD
KDSM 312006Z 3120/0118 01011KT P6SM SKC
     FM010000 VRB04KT P6SM SKC
     FM011500 15011KT P6SM SCT150=

USA.gov is the U.S. government's official web portal to all federal, state and local government web resources and services.